Time;durP1;ratioP1;P1;durP2;ratioP2;P2;SDS_P1;SDS_P2;PMS_P1;PMS_P2;Temp;Humidity;BMP_temperature;BMP_pressure;BME280_temperature;BME280_humidity;BME280_pressure;Samples;Min_cycle;Max_cycle;Signal;HPM_P1;HPM_P2
2022/08/14 00:00:49;;;;;;;;;;;;;;;24.02;34.76;100124.94;5009483;28;6816;-78
2022/08/14 00:03:28;;;;;;;;;;;;;;;24.03;34.69;100113.56;5007504;28;6965;-77
2022/08/14 00:05:56;;;;;;;;;;;;;;;24.03;35.09;100117.06;4973107;28;8094;-78
2022/08/14 00:08:22;;;;;;;;;;;;;;;24.00;34.65;100117.13;5000111;28;7223;-78
2022/08/14 00:10:48;;;;;;;;;;;;;;;23.95;35.21;100116.28;5010497;28;6771;-78
2022/08/14 00:13:17;;;;;;;;;;;;;;;23.91;35.13;100112.84;4980572;28;8090;-78
2022/08/14 00:15:48;;;;;;;;;;;;;;;23.87;35.27;100108.53;4994903;28;7241;-77
2022/08/14 00:18:19;;;;;;;;;;;;;;;23.86;35.57;100098.97;4980026;28;6820;-78
2022/08/14 00:20:46;;;;;;;;;;;;;;;23.85;35.26;100103.31;4990730;28;6950;-78
2022/08/14 00:23:14;;;;;;;;;;;;;;;23.83;34.83;100101.59;4995983;28;7623;-78
2022/08/14 00:25:41;;;;;;;;;;;;;;;23.76;35.42;100100.81;4979213;28;7251;-78
2022/08/14 00:28:11;;;;;;;;;;;;;;;23.70;35.84;100096.50;5009746;28;6791;-78
2022/08/14 00:30:37;;;;;;;;;;;;;;;23.63;35.65;100097.44;4995348;28;7141;-78
2022/08/14 00:33:03;;;;;;;;;;;;;;;23.54;35.84;100087.09;5005883;28;6791;-77
2022/08/14 00:35:30;;;;;;;;;;;;;;;23.48;36.36;100092.41;5008980;28;6997;-77
2022/08/14 00:37:56;;;;;;;;;;;;;;;23.38;35.81;100083.78;4981797;28;6894;-77
2022/08/14 00:40:22;;;;;;;;;;;;;;;23.30;36.01;100078.63;4999196;28;7139;-77
2022/08/14 00:42:47;;;;;;;;;;;;;;;23.21;36.37;100071.69;5009160;28;6968;-77
2022/08/14 00:45:15;;;;;;;;;;;;;;;23.10;36.55;100071.81;5009665;28;7019;-78
2022/08/14 00:47:45;;;;;;;;;;;;;;;23.04;36.81;100069.25;5007333;28;7116;-77
2022/08/14 00:50:16;;;;;;;;;;;;;;;23.00;36.82;100070.16;4975053;28;6989;-77
2022/08/14 00:52:47;;;;;;;;;;;;;;;23.00;36.48;100070.16;5008356;28;7183;-77
2022/08/14 00:55:13;;;;;;;;;;;;;;;22.98;36.76;100067.56;5008646;28;7010;-78
2022/08/14 00:57:40;;;;;;;;;;;;;;;23.01;36.37;100058.81;5010431;28;6946;-78
2022/08/14 01:00:13;;;;;;;;;;;;;;;23.02;36.47;100056.19;4974912;28;6864;-77
2022/08/14 01:02:43;;;;;;;;;;;;;;;23.05;36.42;100041.38;4978671;28;11133;-78
2022/08/14 01:05:22;;;;;;;;;;;;;;;23.08;36.26;100042.22;5007828;28;8343;-77
2022/08/14 01:07:55;;;;;;;;;;;;;;;23.09;36.29;100038.72;4977008;28;7001;-78
2022/08/14 01:10:21;;;;;;;;;;;;;;;23.12;36.27;100043.03;5009490;28;6796;-77
2022/08/14 01:12:49;;;;;;;;;;;;;;;23.17;36.33;100036.03;4980872;28;6776;-77
2022/08/14 01:15:17;;;;;;;;;;;;;;;23.22;35.94;100025.53;4987391;28;6984;-78
2022/08/14 01:23:14;;;;;;;;;;;;;;;23.33;36.42;100025.44;4978168;28;6816;-77
2022/08/14 01:25:40;;;;;;;;;;;;;;;23.38;35.81;100021.03;5006373;28;7190;-77
2022/08/14 01:28:06;;;;;;;;;;;;;;;23.42;36.07;100012.28;5005663;28;6958;-77
2022/08/14 01:30:37;;;;;;;;;;;;;;;23.46;35.62;100015.69;4971276;28;7449;-77
2022/08/14 01:33:05;;;;;;;;;;;;;;;23.49;35.55;100020.91;5006104;28;6840;-78
2022/08/14 01:35:33;;;;;;;;;;;;;;;23.49;35.92;100016.53;4978632;28;6994;-78
2022/08/14 01:37:59;;;;;;;;;;;;;;;23.52;35.88;100020.88;4975647;28;7145;-78
2022/08/14 01:40:25;;;;;;;;;;;;;;;23.52;35.69;100013.03;5007529;28;6776;-78
2022/08/14 01:42:52;;;;;;;;;;;;;;;23.54;35.83;100013.84;4971085;28;7759;-78
2022/08/14 01:45:17;;;;;;;;;;;;;;;23.56;36.30;100015.59;4976806;28;7025;-78
2022/08/14 01:47:43;;;;;;;;;;;;;;;23.58;36.16;100015.56;5006226;28;6841;-78
2022/08/14 01:50:09;;;;;;;;;;;;;;;23.57;36.03;100014.69;5003786;28;7212;-78
2022/08/14 01:52:37;;;;;;;;;;;;;;;23.58;36.46;99999.88;5006869;28;7171;-78
2022/08/14 01:55:08;;;;;;;;;;;;;;;23.57;36.44;100011.22;4977133;28;7277;-77
2022/08/14 01:57:36;;;;;;;;;;;;;;;23.57;36.20;100013.84;4978727;28;6800;-78
2022/08/14 02:00:08;;;;;;;;;;;;;;;23.57;36.16;100003.38;4965582;28;7137;-78
2022/08/14 02:02:34;;;;;;;;;;;;;;;23.58;36.51;99994.66;5002930;28;6812;-78
2022/08/14 02:05:01;;;;;;;;;;;;;;;23.60;36.42;100003.34;5005404;28;6840;-77
2022/08/14 02:07:31;;;;;;;;;;;;;;;23.60;36.54;100003.34;4986732;28;6980;-78
2022/08/14 02:09:57;;;;;;;;;;;;;;;23.61;36.70;99998.97;5022553;28;6983;-76
2022/08/14 02:12:24;;;;;;;;;;;;;;;23.62;37.23;100001.56;5008284;28;6835;-77
2022/08/14 02:14:50;;;;;;;;;;;;;;;23.65;36.88;100005.91;5011961;28;6966;-78
2022/08/14 02:17:16;;;;;;;;;;;;;;;23.66;36.99;100003.28;5003870;28;7237;-76
2022/08/14 02:19:41;;;;;;;;;;;;;;;23.70;36.49;99999.72;5005519;28;7853;-78
2022/08/14 02:22:07;;;;;;;;;;;;;;;23.70;36.90;99993.59;4974540;28;7230;-77
2022/08/14 02:24:33;;;;;;;;;;;;;;;23.71;36.60;99990.97;5008013;28;7434;-77
2022/08/14 02:27:00;;;;;;;;;;;;;;;23.71;36.62;100000.59;4973753;28;6944;-78
2022/08/14 02:29:30;;;;;;;;;;;;;;;23.68;36.49;100001.50;4971664;28;8140;-77
2022/08/14 02:31:58;;;;;;;;;;;;;;;23.67;36.81;99994.53;4971019;28;7103;-77
2022/08/14 02:34:33;;;;;;;;;;;;;;;23.65;36.84;99998.91;5005441;28;9066;-76
2022/08/14 02:37:10;;;;;;;;;;;;;;;23.60;37.02;99998.09;4990430;28;8497;-76
2022/08/14 02:39:45;;;;;;;;;;;;;;;23.58;37.06;99999.88;5007762;28;6800;-78
2022/08/14 02:42:20;;;;;;;;;;;;;;;23.55;37.07;99995.53;4977254;28;7196;-77
2022/08/14 02:44:46;;;;;;;;;;;;;;;23.53;37.18;99991.22;4988915;28;7338;-77
2022/08/14 02:47:12;;;;;;;;;;;;;;;23.50;36.83;99992.09;4975759;28;6848;-78
2022/08/14 02:49:38;;;;;;;;;;;;;;;23.46;37.15;99995.66;4995445;28;7384;-78
2022/08/14 02:52:06;;;;;;;;;;;;;;;23.44;36.87;99981.75;4982279;28;7146;-78
2022/08/14 02:54:34;;;;;;;;;;;;;;;23.43;37.18;99980.88;4974352;28;6857;-77
2022/08/14 02:57:05;;;;;;;;;;;;;;;23.44;37.25;99981.75;5005890;28;7276;-77
2022/08/14 02:59:34;;;;;;;;;;;;;;;23.43;37.32;99975.63;4988700;28;7162;-77
2022/08/14 03:02:02;;;;;;;;;;;;;;;23.41;37.24;99971.28;5008609;28;6808;-77
2022/08/14 03:04:29;;;;;;;;;;;;;;;23.38;37.37;99976.56;5006764;28;6973;-77
2022/08/14 03:06:56;;;;;;;;;;;;;;;23.35;37.47;99976.63;5006733;28;6840;-77
2022/08/14 03:09:22;;;;;;;;;;;;;;;23.32;38.14;99971.41;4989089;28;6966;-77
2022/08/14 03:11:48;;;;;;;;;;;;;;;23.25;37.54;99975.81;4993789;28;7236;-77
2022/08/14 03:14:13;;;;;;;;;;;;;;;23.17;37.75;99965.44;5009600;28;6954;-77
2022/08/14 03:16:40;;;;;;;;;;;;;;;23.13;37.55;99963.72;5007533;28;7110;-77
2022/08/14 03:19:07;;;;;;;;;;;;;;;23.07;37.56;99964.66;4965093;28;6987;-77
2022/08/14 03:21:36;;;;;;;;;;;;;;;23.05;37.75;99969.06;5006116;28;7345;-77
2022/08/14 03:24:10;;;;;;;;;;;;;;;23.02;37.77;99967.34;5006399;28;6796;-77
2022/08/14 03:26:39;;;;;;;;;;;;;;;22.96;38.19;99967.41;5007941;28;6828;-76
2022/08/14 03:29:08;;;;;;;;;;;;;;;22.95;38.27;99962.19;5010880;28;6795;-77
2022/08/14 03:31:37;;;;;;;;;;;;;;;22.92;38.28;99964.84;4985615;28;7889;-77
2022/08/14 03:34:03;;;;;;;;;;;;;;;22.89;38.42;99965.75;5009810;28;7242;-77
2022/08/14 03:36:31;;;;;;;;;;;;;;;22.86;38.50;99963.16;4975970;28;7024;-77
2022/08/14 03:38:58;;;;;;;;;;;;;;;22.81;38.44;99965.81;4980492;28;7077;-77
2022/08/14 03:41:26;;;;;;;;;;;;;;;22.77;38.39;99956.25;5005516;28;8375;-77
2022/08/14 03:43:59;;;;;;;;;;;;;;;22.74;38.71;99964.13;4975794;28;6800;-77
2022/08/14 03:46:27;;;;;;;;;;;;;;;22.71;38.73;99967.63;4977302;28;6993;-77
2022/08/14 03:48:54;;;;;;;;;;;;;;;22.69;38.54;99964.19;5011162;28;6841;-77
2022/08/14 03:51:27;;;;;;;;;;;;;;;22.67;38.42;99959.84;4974198;28;7208;-77
2022/08/14 03:53:58;;;;;;;;;;;;;;;22.64;38.71;99962.50;4977126;28;6828;-77
2022/08/14 03:56:28;;;;;;;;;;;;;;;22.61;38.51;99960.78;5011586;28;7205;-77
2022/08/14 03:58:58;;;;;;;;;;;;;;;22.59;38.45;99960.78;4979377;28;6961;-76
2022/08/14 04:01:25;;;;;;;;;;;;;;;22.54;38.25;99951.25;4977456;28;7235;-77
2022/08/14 04:04:04;;;;;;;;;;;;;;;22.53;38.71;99960.84;4980617;28;6780;-77
2022/08/14 04:06:32;;;;;;;;;;;;;;;22.53;38.56;99959.97;4995181;28;7480;-77
2022/08/14 04:08:58;;;;;;;;;;;;;;;22.51;39.08;99961.72;4973722;28;6994;-77
2022/08/14 04:11:24;;;;;;;;;;;;;;;22.45;38.71;99952.16;5006999;28;7025;-77
2022/08/14 04:13:50;;;;;;;;;;;;;;;22.44;38.80;99950.44;5025186;28;6962;-77
2022/08/14 04:16:22;;;;;;;;;;;;;;;22.41;39.23;99947.88;5012935;28;7148;-77
2022/08/14 04:18:53;;;;;;;;;;;;;;;22.36;39.05;99945.28;4980165;28;6956;-77
2022/08/14 04:21:23;;;;;;;;;;;;;;;22.33;39.17;99945.28;4978848;28;7249;-78
2022/08/14 04:23:51;;;;;;;;;;;;;;;22.27;39.39;99948.81;5010602;28;6792;-78
2022/08/14 04:26:18;;;;;;;;;;;;;;;22.23;39.50;99939.28;4971645;28;6804;-77
2022/08/14 04:28:45;;;;;;;;;;;;;;;22.19;39.36;99943.66;5008575;28;7412;-77
2022/08/14 04:31:12;;;;;;;;;;;;;;;22.16;39.80;99943.69;4971444;28;6815;-77
2022/08/14 04:33:39;;;;;;;;;;;;;;;22.11;39.56;99940.25;5007140;28;7777;-77
2022/08/14 04:36:05;;;;;;;;;;;;;;;22.09;39.52;99935.91;4988370;28;6987;-77
2022/08/14 04:43:59;;;;;;;;;;;;;;;22.00;39.68;99927.25;5007017;28;6812;-77
2022/08/14 04:46:27;;;;;;;;;;;;;;;22.00;39.94;99929.03;5005880;28;7168;-77
2022/08/14 04:48:54;;;;;;;;;;;;;;;22.00;39.88;99931.63;5023272;28;7846;-77
2022/08/14 04:51:26;;;;;;;;;;;;;;;21.98;39.88;99917.75;4977495;28;6800;-76
2022/08/14 04:53:54;;;;;;;;;;;;;;;21.98;40.28;99915.97;4994025;28;7002;-76
2022/08/14 04:56:25;;;;;;;;;;;;;;;21.99;40.31;99907.28;4959320;28;6988;-75
2022/08/14 04:58:58;;;;;;;;;;;;;;;22.00;40.14;99909.00;4976968;28;7036;-76
2022/08/14 05:01:26;;;;;;;;;;;;;;;22.04;40.31;99908.13;4975662;28;7242;-76
2022/08/14 05:03:53;;;;;;;;;;;;;;;22.09;40.22;99904.59;5010399;28;6811;-75
2022/08/14 05:06:20;;;;;;;;;;;;;;;22.15;40.22;99904.56;4972164;28;6800;-75
2022/08/14 05:08:47;;;;;;;;;;;;;;;22.24;40.51;99906.22;4976913;28;6975;-76
2022/08/14 05:11:13;;;;;;;;;;;;;;;22.32;40.46;99907.91;5008044;28;7097;-76
2022/08/14 05:13:39;;;;;;;;;;;;;;;22.44;40.47;99906.06;4995172;28;7096;-76
2022/08/14 05:16:06;;;;;;;;;;;;;;;22.56;40.28;99898.13;4978094;28;6863;-76
2022/08/14 05:18:36;;;;;;;;;;;;;;;22.71;40.72;99902.34;4975012;28;6792;-75
2022/08/14 05:21:08;;;;;;;;;;;;;;;22.87;40.30;99896.97;4974585;28;7150;-76
2022/08/14 05:23:38;;;;;;;;;;;;;;;23.06;40.77;99896.75;4978203;28;7210;-76
2022/08/14 05:26:11;;;;;;;;;;;;;;;23.27;40.67;99899.09;4970573;28;6976;-76
2022/08/14 05:28:43;;;;;;;;;;;;;;;23.49;41.14;99900.63;4972940;28;7210;-76
2022/08/14 05:31:16;;;;;;;;;;;;;;;23.69;40.68;99898.59;4995066;28;6843;-76
2022/08/14 05:33:44;;;;;;;;;;;;;;;23.92;40.88;99892.13;4978768;28;6856;-77
2022/08/14 05:36:14;;;;;;;;;;;;;;;24.14;39.75;99889.19;4982405;28;7030;-76
2022/08/14 05:38:46;;;;;;;;;;;;;;;24.36;39.08;99888.88;4981461;28;7113;-77
2022/08/14 05:41:16;;;;;;;;;;;;;;;24.55;39.38;99890.25;5002759;28;7390;-76
2022/08/14 05:43:46;;;;;;;;;;;;;;;24.70;38.90;99896.09;4973936;28;6828;-76
2022/08/14 05:46:22;;;;;;;;;;;;;;;24.81;38.63;99890.69;4976192;28;7091;-76
2022/08/14 05:48:53;;;;;;;;;;;;;;;24.89;39.22;99887.91;5007485;28;8708;-76
2022/08/14 05:51:21;;;;;;;;;;;;;;;24.95;38.68;99893.06;4984173;28;6957;-76
2022/08/14 05:53:47;;;;;;;;;;;;;;;25.01;38.12;99895.53;4977379;28;7227;-76
2022/08/14 05:56:13;;;;;;;;;;;;;;;25.04;38.24;99890.25;5007193;28;6943;-76
2022/08/14 05:58:38;;;;;;;;;;;;;;;25.06;38.24;99896.31;5007444;28;7196;-76
2022/08/14 06:01:04;;;;;;;;;;;;;;;25.09;38.29;99892.78;5007889;28;6775;-76
2022/08/14 06:03:30;;;;;;;;;;;;;;;25.11;38.74;99893.59;5014583;28;6775;-75
2022/08/14 06:05:59;;;;;;;;;;;;;;;25.12;38.47;99894.47;4994550;28;6998;-76
2022/08/14 06:08:30;;;;;;;;;;;;;;;25.13;38.52;99893.59;4977293;28;6843;-76
2022/08/14 06:11:02;;;;;;;;;;;;;;;25.16;38.85;99893.50;5015444;28;7252;-76
2022/08/14 06:13:40;;;;;;;;;;;;;;;25.18;38.51;99882.09;5010549;28;7229;-76
2022/08/14 06:16:06;;;;;;;;;;;;;;;25.22;38.27;99880.28;4993451;28;7197;-76
2022/08/14 06:18:34;;;;;;;;;;;;;;;25.26;38.61;99887.19;5010428;28;6872;-76
2022/08/14 06:21:01;;;;;;;;;;;;;;;25.31;38.63;99889.69;5006429;28;6880;-76
2022/08/14 06:23:26;;;;;;;;;;;;;;;25.37;38.82;99889.59;5025683;28;7139;-76
2022/08/14 06:25:52;;;;;;;;;;;;;;;25.44;38.32;99891.16;4972883;28;6796;-76
2022/08/14 06:28:21;;;;;;;;;;;;;;;25.52;38.77;99881.38;5027649;28;6954;-76
2022/08/14 06:30:48;;;;;;;;;;;;;;;25.61;38.59;99875.09;5009816;28;6976;-76
2022/08/14 06:33:17;;;;;;;;;;;;;;;25.69;38.30;99869.66;5006867;28;6796;-76
2022/08/14 06:35:44;;;;;;;;;;;;;;;25.77;38.29;99866.84;4992581;28;6976;-77
2022/08/14 06:38:19;;;;;;;;;;;;;;;25.87;38.07;99868.34;5006569;28;7320;-76
2022/08/14 06:40:46;;;;;;;;;;;;;;;25.95;38.03;99865.56;4989781;28;7230;-77
2022/08/14 06:43:14;;;;;;;;;;;;;;;26.01;38.00;99868.00;4980307;28;6856;-76
2022/08/14 06:45:42;;;;;;;;;;;;;;;26.05;37.89;99861.81;4974101;28;6800;-76
2022/08/14 06:48:15;;;;;;;;;;;;;;;26.15;38.15;99858.94;5003443;28;7241;-77
2022/08/14 06:50:42;;;;;;;;;;;;;;;26.24;37.63;99855.25;4988797;28;6842;-76
2022/08/14 06:53:08;;;;;;;;;;;;;;;26.33;37.54;99855.00;5006241;28;6992;-77
2022/08/14 06:55:35;;;;;;;;;;;;;;;26.43;37.73;99847.75;4974349;28;7299;-75
2022/08/14 06:58:01;;;;;;;;;;;;;;;26.55;37.78;99850.03;4968245;28;7133;-77
2022/08/14 07:00:28;;;;;;;;;;;;;;;26.65;37.58;99850.63;5007489;28;6962;-76
2022/08/14 07:05:45;;;;;;;;;;;;;;;26.87;37.48;99847.44;4982108;28;7182;-77
2022/08/14 07:08:21;;;;;;;;;;;;;;;26.98;37.47;99847.13;4978021;28;7208;-77
2022/08/14 07:10:53;;;;;;;;;;;;;;;27.12;37.04;99849.34;4980234;28;7310;-76
2022/08/14 07:13:19;;;;;;;;;;;;;;;27.24;37.15;99843.75;4982660;28;7248;-76
2022/08/14 07:15:51;;;;;;;;;;;;;;;27.36;36.87;99836.38;5000670;28;7133;-76
2022/08/14 07:18:31;;;;;;;;;;;;;;;27.47;37.07;99842.19;4980269;28;7390;-77
2022/08/14 07:21:00;;;;;;;;;;;;;;;27.60;36.65;99847.94;4980474;28;6997;-77
2022/08/14 07:23:26;;;;;;;;;;;;;;;27.72;36.23;99846.69;5008795;28;6796;-76
2022/08/14 07:25:55;;;;;;;;;;;;;;;27.83;36.59;99839.31;5007279;28;7035;-77
2022/08/14 07:28:26;;;;;;;;;;;;;;;27.93;36.45;99845.13;4980110;28;6976;-77
2022/08/14 07:30:58;;;;;;;;;;;;;;;28.02;36.21;99843.97;5009644;28;7223;-76
2022/08/14 07:33:27;;;;;;;;;;;;;;;28.14;36.27;99834.78;4978093;28;7206;-75
2022/08/14 07:35:54;;;;;;;;;;;;;;;28.25;35.87;99826.53;4977079;28;7147;-76
2022/08/14 07:38:22;;;;;;;;;;;;;;;28.36;35.43;99834.09;5000535;28;6983;-76
2022/08/14 07:40:50;;;;;;;;;;;;;;;28.47;35.51;99831.91;5008966;28;6883;-76
2022/08/14 07:43:17;;;;;;;;;;;;;;;28.62;35.81;99829.63;4972540;28;6796;-76
2022/08/14 07:45:43;;;;;;;;;;;;;;;28.74;35.63;99830.97;4991514;28;8271;-75
2022/08/14 07:48:09;;;;;;;;;;;;;;;28.88;35.71;99841.91;5011414;28;6955;-75
2022/08/14 07:50:35;;;;;;;;;;;;;;;29.00;35.45;99835.28;5009767;28;6935;-77
2022/08/14 07:53:02;;;;;;;;;;;;;;;29.14;35.01;99837.41;4993342;28;7049;-76
2022/08/14 07:55:28;;;;;;;;;;;;;;;29.25;34.79;99831.72;4961439;28;7073;-75
2022/08/14 07:57:55;;;;;;;;;;;;;;;29.35;34.73;99829.56;4975324;28;6924;-76
2022/08/14 08:00:24;;;;;;;;;;;;;;;29.43;34.63;99821.38;5011290;28;6930;-77
2022/08/14 08:02:53;;;;;;;;;;;;;;;29.51;34.52;99817.53;4988855;28;7171;-76
2022/08/14 08:05:23;;;;;;;;;;;;;;;29.63;33.87;99815.28;4994240;28;7286;-77
2022/08/14 08:07:50;;;;;;;;;;;;;;;29.72;34.55;99817.56;4971774;28;7032;-76
2022/08/14 08:10:31;;;;;;;;;;;;;;;29.84;33.69;99805.63;4977628;28;7030;-77
2022/08/14 08:13:12;;;;;;;;;;;;;;;29.96;33.74;99814.84;4967339;28;8604;-75
2022/08/14 08:15:56;;;;;;;;;;;;;;;30.05;33.43;99814.47;5025341;28;7003;-76
2022/08/14 08:18:23;;;;;;;;;;;;;;;30.15;33.32;99820.19;5031912;28;7000;-78
2022/08/14 08:20:53;;;;;;;;;;;;;;;30.25;33.75;99823.31;5017016;28;6950;-76
2022/08/14 08:23:21;;;;;;;;;;;;;;;30.36;33.54;99820.19;4974188;28;7316;-76
2022/08/14 08:25:50;;;;;;;;;;;;;;;30.46;33.36;99832.06;5005087;28;7237;-76
2022/08/14 08:28:22;;;;;;;;;;;;;;;30.53;32.92;99830.03;4979337;28;7063;-75
2022/08/14 08:30:57;;;;;;;;;;;;;;;30.60;32.66;99826.16;4978411;28;7102;-76
2022/08/14 08:33:27;;;;;;;;;;;;;;;30.68;33.17;99827.66;4987035;28;6796;-75
2022/08/14 08:35:59;;;;;;;;;;;;;;;30.78;32.60;99826.31;5014419;28;6816;-76
2022/08/14 08:38:26;;;;;;;;;;;;;;;30.84;32.99;99822.50;4986533;28;7217;-75
2022/08/14 08:40:59;;;;;;;;;;;;;;;30.89;32.77;99820.53;5013756;28;6803;-76
2022/08/14 08:43:35;;;;;;;;;;;;;;;30.93;32.64;99811.50;5015998;28;6800;-75
2022/08/14 08:46:26;;;;;;;;;;;;;;;31.04;32.58;99808.38;5012567;28;7245;-78
2022/08/14 08:48:56;;;;;;;;;;;;;;;31.15;32.65;99811.38;4977910;28;6856;-76
2022/08/14 08:51:31;;;;;;;;;;;;;;;31.29;32.12;99813.38;4982141;28;8034;-78
2022/08/14 08:54:12;;;;;;;;;;;;;;;31.45;32.12;99816.13;5009717;28;6816;-77
2022/08/14 08:56:48;;;;;;;;;;;;;;;31.61;31.66;99811.88;4974237;28;6989;-78
2022/08/14 08:59:30;;;;;;;;;;;;;;;31.78;31.81;99814.56;4962802;28;7286;-77
2022/08/14 09:02:06;;;;;;;;;;;;;;;32.04;31.44;99801.81;5019576;28;7081;-77
2022/08/14 09:04:43;;;;;;;;;;;;;;;32.42;31.12;99792.81;4963398;28;8349;-77
2022/08/14 09:07:09;;;;;;;;;;;;;;;32.86;30.40;99788.69;4997868;28;7898;-76
2022/08/14 09:09:51;;;;;;;;;;;;;;;33.34;29.72;99783.41;4977254;28;7207;-77
2022/08/14 09:12:18;;;;;;;;;;;;;;;33.98;29.04;99781.50;4995535;28;6843;-77
2022/08/14 09:14:50;;;;;;;;;;;;;;;34.57;28.19;99777.97;4978830;28;6964;-79
2022/08/14 09:17:15;;;;;;;;;;;;;;;35.25;27.12;99781.69;4976519;28;6808;-77
2022/08/14 09:19:41;;;;;;;;;;;;;;;35.98;26.87;99768.88;4980262;28;7191;-76
2022/08/14 09:22:07;;;;;;;;;;;;;;;36.74;25.68;99764.56;4993326;28;7011;-76
2022/08/14 09:24:33;;;;;;;;;;;;;;;37.42;25.16;99767.59;5012612;28;6780;-75
2022/08/14 09:26:58;;;;;;;;;;;;;;;38.04;24.91;99765.59;4981264;28;7126;-77
2022/08/14 09:29:24;;;;;;;;;;;;;;;38.75;23.99;99763.69;4979616;28;6977;-75
2022/08/14 09:31:59;;;;;;;;;;;;;;;39.50;23.37;99761.16;4982259;28;7303;-78
2022/08/14 09:35:12;;;;;;;;;;;;;;;40.21;22.34;99756.91;4991318;28;7024;-77
2022/08/14 09:37:46;;;;;;;;;;;;;;;40.96;21.47;99753.06;4984117;28;6828;-77
2022/08/14 09:40:58;;;;;;;;;;;;;;;41.48;20.91;99744.75;5008007;28;6775;-75
2022/08/14 09:43:57;;;;;;;;;;;;;;;42.05;20.38;99743.06;5003039;28;6930;-76
2022/08/14 09:46:26;;;;;;;;;;;;;;;42.58;19.63;99735.31;4983387;28;6976;-78
2022/08/14 09:49:06;;;;;;;;;;;;;;;42.99;19.23;99737.63;5012494;28;6803;-76
2022/08/14 09:51:39;;;;;;;;;;;;;;;43.40;19.13;99729.06;4979263;28;6832;-76
2022/08/14 09:54:10;;;;;;;;;;;;;;;43.86;18.54;99733.44;4997000;28;7259;-73
2022/08/14 09:56:46;;;;;;;;;;;;;;;44.22;17.69;99719.78;5012886;28;7149;-75
2022/08/14 09:59:21;;;;;;;;;;;;;;;44.45;17.34;99717.31;5011655;28;6800;-77
2022/08/14 10:01:48;;;;;;;;;;;;;;;44.57;16.86;99709.78;4993370;28;7791;-74
2022/08/14 10:04:27;;;;;;;;;;;;;;;44.51;16.71;99718.50;4985309;28;7003;-75
2022/08/14 10:06:56;;;;;;;;;;;;;;;44.34;16.48;99713.09;5020442;28;7175;-74
2022/08/14 10:09:21;;;;;;;;;;;;;;;44.23;16.14;99708.81;4983660;28;7675;-74
2022/08/14 10:11:57;;;;;;;;;;;;;;;44.11;15.99;99716.34;4983485;28;6848;-75
2022/08/14 10:14:29;;;;;;;;;;;;;;;43.92;16.17;99708.50;4978817;28;6954;-75
2022/08/14 10:16:57;;;;;;;;;;;;;;;43.80;16.17;99710.63;5009918;28;6962;-75
2022/08/14 10:19:27;;;;;;;;;;;;;;;43.89;16.08;99704.25;5014578;28;6799;-75
2022/08/14 10:22:00;;;;;;;;;;;;;;;44.17;16.25;99695.97;5012823;28;6816;-76
2022/08/14 10:24:38;;;;;;;;;;;;;;;44.54;16.08;99697.41;4978933;28;6852;-75
2022/08/14 10:27:15;;;;;;;;;;;;;;;44.95;15.73;99695.78;4973571;28;7322;-74
2022/08/14 10:29:47;;;;;;;;;;;;;;;45.20;15.16;99683.19;5024267;28;7292;-76
2022/08/14 10:32:13;;;;;;;;;;;;;;;45.29;14.93;99670.47;5005448;28;6826;-76
2022/08/14 10:34:40;;;;;;;;;;;;;;;45.20;14.63;99675.06;4994455;28;7145;-73
2022/08/14 10:37:15;;;;;;;;;;;;;;;45.04;14.44;99683.19;4978751;28;7146;-74
2022/08/14 10:39:58;;;;;;;;;;;;;;;44.90;14.61;99682.78;4987662;28;7434;-74
2022/08/14 10:42:36;;;;;;;;;;;;;;;45.11;14.74;99684.19;4980149;28;7222;-72
2022/08/14 10:45:17;;;;;;;;;;;;;;;45.44;14.15;99678.75;4973507;28;6815;-72
2022/08/14 10:47:43;;;;;;;;;;;;;;;45.57;13.96;99671.94;5008015;28;7248;-73
2022/08/14 10:50:08;;;;;;;;;;;;;;;45.52;13.73;99663.53;4982287;28;7078;-72
2022/08/14 10:52:35;;;;;;;;;;;;;;;45.16;13.57;99671.00;5008749;28;7840;-72
2022/08/14 10:55:15;;;;;;;;;;;;;;;44.69;14.15;99671.66;5011219;28;6856;-74
2022/08/14 10:57:58;;;;;;;;;;;;;;;44.31;13.98;99669.38;4976536;28;7137;-74
2022/08/14 11:00:27;;;;;;;;;;;;;;;44.02;13.93;99668.72;4996432;28;8405;-72
2022/08/14 11:03:12;;;;;;;;;;;;;;;43.77;13.67;99657.84;5009305;28;6808;-74
2022/08/14 11:05:50;;;;;;;;;;;;;;;43.41;13.68;99666.06;5011178;28;7170;-72
2022/08/14 11:08:31;;;;;;;;;;;;;;;43.14;14.07;99657.94;4989507;28;6992;-73
2022/08/14 11:11:00;;;;;;;;;;;;;;;43.24;14.56;99644.34;4978538;28;6796;-73
2022/08/14 11:13:29;;;;;;;;;;;;;;;43.67;14.33;99632.81;5012880;28;7231;-73
2022/08/14 11:15:59;;;;;;;;;;;;;;;44.12;14.16;99626.25;5007535;28;6816;-74
2022/08/14 11:18:27;;;;;;;;;;;;;;;44.39;13.93;99637.81;4977786;28;7195;-74
2022/08/14 11:20:58;;;;;;;;;;;;;;;44.57;13.59;99627.88;5013846;28;6820;-74
2022/08/14 11:23:39;;;;;;;;;;;;;;;44.72;13.61;99620.84;5008662;28;6807;-74
2022/08/14 11:26:08;;;;;;;;;;;;;;;44.84;13.37;99621.34;4983460;28;7187;-73
2022/08/14 11:28:42;;;;;;;;;;;;;;;44.75;13.17;99614.25;4974061;28;6867;-73
2022/08/14 11:31:14;;;;;;;;;;;;;;;44.60;13.18;99617.63;5009235;28;6842;-74
2022/08/14 11:33:40;;;;;;;;;;;;;;;44.70;13.62;99619.31;4979768;28;6984;-74
2022/08/14 11:36:12;;;;;;;;;;;;;;;44.82;13.22;99615.28;5010482;28;6821;-76
2022/08/14 11:38:44;;;;;;;;;;;;;;;44.78;13.50;99609.38;4998843;28;6820;-76
2022/08/14 11:41:15;;;;;;;;;;;;;;;44.72;13.22;99609.16;4987737;28;6811;-77
2022/08/14 11:43:44;;;;;;;;;;;;;;;44.65;13.51;99614.41;4972150;28;6808;-77
2022/08/14 11:46:12;;;;;;;;;;;;;;;44.55;13.45;99603.75;4978911;28;6888;-76
2022/08/14 11:48:52;;;;;;;;;;;;;;;44.62;13.78;99598.56;5003105;28;7262;-77
2022/08/14 11:51:27;;;;;;;;;;;;;;;44.76;13.69;99600.56;5012503;28;7419;-74
2022/08/14 11:54:04;;;;;;;;;;;;;;;44.93;13.81;99596.00;5013961;28;6892;-75
2022/08/14 11:56:36;;;;;;;;;;;;;;;45.19;13.39;99594.13;4980379;28;7299;-74
2022/08/14 11:59:02;;;;;;;;;;;;;;;45.31;13.22;99586.50;4984687;28;7027;-74
2022/08/14 12:01:32;;;;;;;;;;;;;;;45.40;13.24;99582.78;4976909;28;6809;-74
2022/08/14 12:04:20;;;;;;;;;;;;;;;45.62;13.25;99583.03;5029356;28;8087;-74
2022/08/14 12:06:54;;;;;;;;;;;;;;;45.93;13.15;99578.69;5008481;28;6804;-75
2022/08/14 12:09:35;;;;;;;;;;;;;;;46.20;12.96;99585.47;4971543;28;7159;-76
2022/08/14 12:12:13;;;;;;;;;;;;;;;46.20;12.79;99571.94;4984803;28;6975;-75
2022/08/14 12:14:52;;;;;;;;;;;;;;;45.97;12.82;99572.69;5012335;28;6792;-76
2022/08/14 12:17:18;;;;;;;;;;;;;;;45.77;13.11;99554.22;4980901;28;6966;-76
2022/08/14 12:19:48;;;;;;;;;;;;;;;45.63;12.88;99555.78;4979889;28;7264;-75
2022/08/14 12:22:14;;;;;;;;;;;;;;;45.43;12.95;99546.41;5000329;28;7055;-75
2022/08/14 12:24:43;;;;;;;;;;;;;;;45.29;12.79;99545.25;5011803;28;6922;-76
2022/08/14 12:27:11;;;;;;;;;;;;;;;45.22;12.73;99543.25;4985452;28;7167;-76
2022/08/14 12:29:40;;;;;;;;;;;;;;;45.00;12.81;99539.44;5011359;28;6875;-75
2022/08/14 12:32:06;;;;;;;;;;;;;;;44.63;13.37;99547.06;4979046;28;7729;-74
2022/08/14 12:34:35;;;;;;;;;;;;;;;44.07;13.41;99544.09;5010687;28;6971;-75
2022/08/14 12:37:07;;;;;;;;;;;;;;;43.33;13.88;99544.66;4981164;28;6823;-75
2022/08/14 12:39:34;;;;;;;;;;;;;;;42.58;14.14;99544.16;4974516;28;6960;-77
2022/08/14 12:42:05;;;;;;;;;;;;;;;42.08;14.56;99545.53;4986112;28;6792;-75
2022/08/14 12:44:38;;;;;;;;;;;;;;;41.72;14.99;99536.38;4979187;28;7174;-75
2022/08/14 12:47:14;;;;;;;;;;;;;;;41.45;15.41;99532.66;4984127;28;6819;-75
2022/08/14 12:49:53;;;;;;;;;;;;;;;41.24;15.67;99532.91;5011866;28;7655;-76
2022/08/14 12:52:40;;;;;;;;;;;;;;;40.95;15.72;99523.91;4985960;28;7837;-76
2022/08/14 12:55:15;;;;;;;;;;;;;;;40.65;15.69;99516.84;4981733;28;7284;-75
2022/08/14 12:57:44;;;;;;;;;;;;;;;40.39;16.19;99517.47;5013020;28;7039;-74
2022/08/14 13:00:21;;;;;;;;;;;;;;;40.22;16.33;99516.28;4982445;28;7861;-74
2022/08/14 13:02:55;;;;;;;;;;;;;;;40.21;16.65;99518.13;4980305;28;11297;-74
2022/08/14 13:05:28;;;;;;;;;;;;;;;40.60;17.27;99514.59;5011549;28;6860;-77
2022/08/14 13:07:56;;;;;;;;;;;;;;;41.27;16.66;99504.88;5014857;28;7240;-76
2022/08/14 13:10:23;;;;;;;;;;;;;;;41.94;16.24;99509.22;4980744;28;6788;-74
2022/08/14 13:12:55;;;;;;;;;;;;;;;42.54;15.54;99513.16;4984440;28;7305;-77
2022/08/14 13:15:21;;;;;;;;;;;;;;;43.05;15.01;99491.81;4975574;28;6808;-75
2022/08/14 13:17:51;;;;;;;;;;;;;;;43.43;14.57;99494.19;4991879;28;7037;-77
2022/08/14 13:20:21;;;;;;;;;;;;;;;43.66;14.51;99486.34;4994522;28;6988;-76
2022/08/14 13:22:47;;;;;;;;;;;;;;;43.96;14.46;99494.84;4978562;28;7016;-75
2022/08/14 13:25:17;;;;;;;;;;;;;;;44.26;14.40;99489.81;4979441;28;6775;-75